This is the latest recevied weather packets stored in our database for station/object K4SHP-16. If no packets are shown the sender has not sent any weather packets the latest 10 day(s).
| Time | Temp. | Humidity | Pressure | Rain* | Wind** | Luminosity | Snow |
|---|---|---|---|---|---|---|---|
| 1777419925 | 20° C | 74% | 1016.8 hPa | 0 mm | - | - | - |
| 1777417744 | 21.67° C | 68% | 1017.4 hPa | 0 mm | - | - | - |
| 1777413244 | 24.44° C | 60% | 1017.7 hPa | 0 mm | - | - | - |
| 1777412185 | 25° C | 59% | 1017.8 hPa | 0 mm | - | - | - |
| 1777411084 | 24.44° C | 60% | 1017.7 hPa | 0 mm | - | - | - |
| 1777409104 | 25.56° C | 58% | 1018.2 hPa | 0 mm | - | - | - |
| 1777406425 | 24.44° C | 61% | 1018.7 hPa | 0 mm | - | - | - |
| 1777397224 | 18.89° C | 69% | 1021.2 hPa | 0 mm | - | - | - |
| 1777395244 | 18.89° C | 58% | 1021.1 hPa | 0 mm | - | - | - |
| 1777394704 | 19.44° C | 53% | 1021.5 hPa | 0 mm | - | - | - |
| 1777394164 | 20° C | 54% | 1021.8 hPa | 0 mm | - | - | - |
| 1777392544 | 20.56° C | 51% | 1023.2 hPa | 0 mm | - | - | - |
| 1777388044 | 18.33° C | 57% | 1025.1 hPa | 0 mm | - | - | - |
| 1777385364 | 17.78° C | 62% | 1025.1 hPa | 0 mm | - | - | - |
| 1777382824 | 15.56° C | 73% | 1024.9 hPa | 0 mm | - | - | - |
| 1777381744 | 14.44° C | 78% | 1024.7 hPa | 0 mm | - | - | - |
| 1777380303 | 13.33° C | 85% | 1024.7 hPa | 0 mm | - | - | - |
| 1777377603 | 10.56° C | 93% | 1023.6 hPa | 0 mm | - | - | - |
| 1777377244 | 10° C | 94% | 1023.4 hPa | 0 mm | - | - | - |
| 1777376185 | 9.44° C | 94% | 1023.3 hPa | 0 mm | - | - | - |
| 1777375084 | 8.33° C | 94% | 1022.8 hPa | 0 mm | - | - | - |
| 1777374544 | 7.78° C | 94% | 1022.6 hPa | 0 mm | - | - | - |
| 1777367364 | 6.11° C | 93% | 1021.9 hPa | 0 mm | - | - | - |
| 1777364823 | 6.11° C | 93% | 1022.5 hPa | 0 mm | - | - | - |
| 1777363224 | 7.22° C | 93% | 1022.9 hPa | 0 mm | - | - | - |
* Rain latest hour (hover to see other rain measurements)
** Current wind speed in m/s (hover to see current wind gust speed)